createdAt,value
2017-07-20T00:01:13.973Z,70.70
2017-07-20T00:03:40.813Z,71.00
2017-07-20T00:06:07.725Z,71.50
2017-07-20T00:08:34.569Z,71.10
2017-07-20T00:11:01.420Z,70.90
2017-07-20T00:13:28.320Z,71.20
2017-07-20T00:15:55.893Z,71.90
2017-07-20T00:18:22.725Z,71.90
2017-07-20T00:20:49.612Z,71.80
2017-07-20T00:23:16.444Z,71.30
2017-07-20T00:25:43.285Z,71.60
2017-07-20T00:28:10.188Z,71.20
2017-07-20T00:30:39.005Z,69.90
2017-07-20T00:33:06.183Z,69.90
2017-07-20T00:35:33.099Z,70.80
2017-07-20T00:37:59.916Z,71.10
2017-07-20T00:40:27.549Z,69.10
2017-07-20T00:42:54.393Z,69.60
2017-07-20T00:45:21.361Z,69.60
2017-07-20T00:47:48.200Z,70.30
2017-07-20T00:50:15.051Z,71.80
2017-07-20T00:52:41.968Z,71.40
2017-07-20T00:55:08.879Z,71.90
2017-07-20T00:57:35.719Z,71.70
2017-07-20T01:00:02.563Z,71.00
2017-07-20T01:02:29.478Z,71.10
2017-07-20T01:04:56.309Z,70.30
2017-07-20T01:07:23.207Z,70.60
2017-07-20T01:09:50.111Z,71.40
2017-07-20T01:12:16.952Z,70.10
2017-07-20T01:14:43.819Z,70.00
2017-07-20T01:17:11.464Z,70.80
2017-07-20T01:19:39.054Z,70.10
2017-07-20T01:22:05.981Z,70.10
2017-07-20T01:24:32.811Z,70.30
2017-07-20T01:27:00.398Z,70.90
2017-07-20T01:29:27.307Z,71.00
2017-07-20T01:31:54.150Z,70.90
2017-07-20T01:34:21.002Z,71.70
2017-07-20T01:36:47.913Z,71.10
2017-07-20T01:39:14.749Z,69.90
2017-07-20T01:41:41.660Z,70.80
2017-07-20T01:44:08.573Z,70.50
2017-07-20T01:46:36.231Z,72.30
2017-07-20T01:49:03.047Z,71.60
2017-07-20T01:51:30.027Z,70.50
2017-07-20T01:53:56.906Z,71.60
2017-07-20T01:56:23.718Z,70.60
2017-07-20T01:58:50.548Z,70.70
2017-07-20T02:01:17.444Z,71.30
2017-07-20T02:03:44.287Z,70.70
2017-07-20T02:06:11.114Z,71.60
2017-07-20T02:08:38.741Z,71.60
2017-07-20T02:11:05.652Z,71.50
2017-07-20T02:13:32.536Z,71.10
2017-07-20T02:15:59.361Z,71.40
2017-07-20T02:18:26.280Z,72.20
2017-07-20T02:20:53.112Z,70.40
2017-07-20T02:23:19.959Z,70.40
2017-07-20T02:25:46.867Z,69.90
2017-07-20T02:28:13.706Z,70.60
2017-07-20T02:30:40.617Z,69.80
2017-07-20T02:33:07.440Z,70.30
2017-07-20T02:35:34.325Z,70.90
2017-07-20T02:38:01.220Z,72.00
2017-07-20T02:40:28.048Z,71.80
2017-07-20T02:42:55.625Z,72.20
2017-07-20T02:45:22.592Z,72.10
2017-07-20T02:47:49.432Z,72.90
2017-07-20T02:50:16.274Z,72.80
2017-07-20T02:52:43.172Z,72.70
2017-07-20T02:55:09.997Z,73.50
2017-07-20T02:57:36.895Z,74.40
2017-07-20T03:00:03.804Z,74.40
2017-07-20T03:02:30.637Z,75.80
2017-07-20T03:04:57.460Z,74.80
2017-07-20T03:07:24.363Z,75.10
2017-07-20T03:09:51.210Z,74.50
2017-07-20T03:12:18.111Z,74.90
2017-07-20T03:14:45.000Z,74.00
2017-07-20T03:17:12.625Z,74.90
2017-07-20T03:19:39.469Z,74.90
2017-07-20T03:22:18.554Z,74.90
2017-07-20T03:24:45.363Z,74.70
2017-07-20T03:27:12.203Z,74.80
2017-07-20T03:29:39.080Z,74.90
2017-07-20T03:32:05.908Z,74.10
2017-07-20T03:34:33.556Z,75.40
2017-07-20T03:37:01.159Z,76.50
2017-07-20T03:39:28.044Z,75.80
2017-07-20T03:41:54.928Z,75.40
2017-07-20T03:44:21.760Z,74.60
2017-07-20T03:46:48.591Z,74.00
2017-07-20T03:49:15.479Z,74.70
2017-07-20T03:51:42.380Z,74.50
2017-07-20T03:54:09.203Z,74.10
2017-07-20T03:56:36.113Z,73.80
2017-07-20T03:59:02.944Z,73.90
2017-07-20T04:01:29.895Z,73.80
2017-07-20T04:03:56.724Z,73.20
2017-07-20T04:06:23.555Z,73.20
2017-07-20T04:08:51.182Z,75.30
2017-07-20T04:11:18.087Z,74.60
2017-07-20T04:13:44.917Z,74.80
2017-07-20T04:16:11.852Z,74.40
2017-07-20T04:18:39.503Z,74.30
2017-07-20T04:21:06.323Z,74.10
2017-07-20T04:23:33.159Z,74.10
2017-07-20T04:26:01.767Z,74.30
2017-07-20T04:28:29.539Z,74.10
2017-07-20T04:30:56.357Z,73.60
2017-07-20T04:33:23.184Z,74.20
2017-07-20T04:35:50.067Z,74.30
2017-07-20T04:38:16.906Z,74.20
2017-07-20T04:40:43.796Z,73.70
2017-07-20T04:43:10.697Z,73.60
2017-07-20T04:45:37.536Z,72.40
2017-07-20T04:48:04.362Z,71.50
2017-07-20T04:50:31.225Z,71.10
2017-07-20T04:52:58.127Z,68.80
2017-07-20T04:55:24.993Z,68.50
2017-07-20T04:57:51.901Z,68.70
2017-07-20T05:00:18.727Z,67.70
2017-07-20T05:02:45.560Z,65.80
2017-07-20T05:05:12.477Z,66.20
2017-07-20T05:07:39.290Z,64.80
2017-07-20T05:10:06.200Z,64.60
2017-07-20T05:12:33.776Z,68.60
2017-07-20T05:15:00.670Z,67.90
2017-07-20T05:17:27.567Z,69.00
2017-07-20T05:19:54.377Z,69.20
2017-07-20T05:22:21.284Z,71.90
2017-07-20T05:24:48.200Z,71.00
2017-07-20T05:27:15.029Z,71.10
2017-07-20T05:29:42.688Z,71.80
2017-07-20T05:32:09.530Z,71.80
2017-07-20T05:34:37.231Z,73.70
2017-07-20T05:37:04.199Z,73.20
2017-07-20T05:39:31.083Z,73.80
2017-07-20T05:41:57.927Z,72.40
2017-07-20T05:44:24.858Z,72.10
2017-07-20T05:46:51.679Z,71.50
2017-07-20T05:49:18.523Z,71.20
2017-07-20T05:51:45.448Z,71.60
2017-07-20T05:54:12.281Z,71.10
2017-07-20T05:56:39.113Z,69.80
2017-07-20T05:59:06.021Z,69.90
2017-07-20T06:01:32.848Z,70.30
2017-07-20T06:03:59.791Z,69.40
2017-07-20T06:06:26.620Z,68.70
2017-07-20T06:08:53.478Z,67.60
2017-07-20T06:11:20.388Z,67.20
2017-07-20T06:13:47.229Z,66.60
2017-07-20T06:16:14.140Z,67.10
2017-07-20T06:18:41.074Z,66.40
2017-07-20T06:21:21.957Z,66.30
2017-07-20T06:23:49.704Z,67.10
2017-07-20T06:26:16.524Z,66.40
2017-07-20T06:28:43.433Z,64.90
2017-07-20T06:31:24.106Z,65.20
2017-07-20T06:33:52.590Z,64.90
2017-07-20T06:36:20.741Z,65.20
2017-07-20T06:38:48.630Z,65.80
2017-07-20T06:41:16.294Z,65.70
2017-07-20T06:43:43.865Z,65.00
2017-07-20T06:46:11.818Z,65.00
2017-07-20T06:48:39.468Z,65.80
2017-07-20T06:51:06.296Z,65.50
2017-07-20T06:53:33.277Z,65.40
2017-07-20T06:56:00.231Z,65.30
2017-07-20T06:58:27.032Z,65.20
2017-07-20T07:00:53.928Z,64.90
2017-07-20T07:03:20.833Z,64.60
2017-07-20T07:05:47.652Z,64.60
2017-07-20T07:08:14.540Z,64.60
2017-07-20T07:10:42.327Z,64.70
2017-07-20T07:13:09.160Z,64.70
2017-07-20T07:15:36.059Z,65.50
2017-07-20T07:18:02.892Z,65.00
2017-07-20T07:20:29.725Z,65.20
2017-07-20T07:22:56.739Z,65.80
2017-07-20T07:25:24.304Z,66.30
2017-07-20T07:27:51.126Z,65.70
2017-07-20T07:30:18.031Z,66.40
2017-07-20T07:32:48.841Z,67.30
2017-07-20T07:35:18.086Z,67.50
2017-07-20T07:37:46.260Z,67.80
2017-07-20T07:42:51.148Z,67.90
2017-07-20T07:45:21.349Z,68.20
2017-07-20T07:47:52.577Z,67.90
2017-07-20T07:50:19.615Z,67.90
2017-07-20T07:52:48.293Z,67.70
2017-07-20T07:55:15.224Z,67.40
2017-07-20T07:57:47.416Z,67.10
2017-07-20T08:00:19.515Z,67.20
2017-07-20T08:02:46.867Z,66.60
2017-07-20T08:05:13.716Z,67.00
2017-07-20T08:07:41.221Z,66.90
2017-07-20T08:10:08.116Z,67.00
2017-07-20T08:12:35.502Z,67.10
2017-07-20T08:15:11.017Z,66.10
2017-07-20T08:17:42.841Z,65.80
2017-07-20T08:20:10.852Z,65.60
2017-07-20T08:22:38.167Z,65.20
2017-07-20T08:25:04.989Z,65.50
2017-07-20T08:27:31.879Z,65.20
2017-07-20T08:29:58.763Z,64.50
2017-07-20T08:32:26.412Z,60.60
2017-07-20T08:34:53.987Z,59.50
2017-07-20T08:37:21.563Z,58.50
2017-07-20T08:39:48.464Z,58.40
2017-07-20T08:42:15.360Z,59.40
2017-07-20T08:44:42.183Z,59.20
2017-07-20T08:47:09.823Z,59.90
2017-07-20T08:49:36.662Z,59.90
2017-07-20T08:52:03.555Z,61.80
2017-07-20T08:54:30.458Z,60.80
2017-07-20T08:56:57.288Z,60.80
2017-07-20T08:59:24.174Z,61.60
2017-07-20T09:01:51.147Z,61.90
2017-07-20T09:04:18.036Z,62.20
2017-07-20T09:06:44.932Z,62.40
2017-07-20T09:09:11.824Z,63.20
2017-07-20T09:11:38.654Z,63.80
2017-07-20T09:14:05.535Z,63.90
2017-07-20T09:16:33.101Z,64.10
2017-07-20T09:19:00.676Z,64.30
2017-07-20T09:21:27.581Z,64.30
2017-07-20T09:23:54.432Z,64.60
2017-07-20T09:26:22.016Z,62.60
2017-07-20T09:28:48.959Z,62.70
2017-07-20T09:31:15.835Z,62.40
2017-07-20T09:33:42.655Z,62.10
2017-07-20T09:36:09.581Z,61.80
2017-07-20T09:38:37.164Z,62.10
2017-07-20T09:41:04.004Z,62.00
2017-07-20T09:43:31.035Z,61.20
2017-07-20T09:45:58.663Z,61.00
2017-07-20T09:48:25.497Z,61.00
2017-07-20T09:50:52.420Z,61.10
2017-07-20T09:53:19.240Z,60.80
2017-07-20T09:55:46.824Z,60.10
2017-07-20T09:58:15.440Z,60.00
2017-07-20T10:00:42.373Z,60.00
2017-07-20T10:03:09.278Z,59.30
2017-07-20T10:05:36.113Z,58.80
2017-07-20T10:08:03.770Z,57.40
2017-07-20T10:10:30.689Z,57.30
2017-07-20T10:12:57.524Z,56.30
2017-07-20T10:15:24.384Z,56.00
2017-07-20T10:17:51.332Z,54.50
2017-07-20T10:20:18.175Z,55.10
2017-07-20T10:22:46.712Z,53.80
2017-07-20T10:25:14.452Z,54.30
2017-07-20T10:27:42.836Z,53.80
2017-07-20T10:30:09.745Z,53.70
2017-07-20T10:32:36.555Z,53.70
2017-07-20T10:35:06.066Z,53.40
2017-07-20T10:37:32.978Z,53.20
2017-07-20T10:39:59.813Z,53.30
2017-07-20T10:42:27.536Z,53.80
2017-07-20T10:44:54.364Z,53.80
2017-07-20T10:47:21.192Z,54.20
2017-07-20T10:49:48.099Z,54.30
2017-07-20T10:52:15.684Z,55.30
2017-07-20T10:54:42.499Z,55.20
2017-07-20T10:57:11.183Z,56.70
2017-07-20T10:59:38.768Z,57.00
2017-07-20T11:02:10.500Z,57.00
2017-07-20T11:04:38.559Z,57.00
2017-07-20T11:07:05.474Z,58.10
2017-07-20T11:09:32.447Z,58.30
2017-07-20T11:11:59.332Z,59.20
2017-07-20T11:14:27.026Z,60.60
2017-07-20T11:16:53.838Z,60.60
2017-07-20T11:19:21.487Z,60.90
2017-07-20T11:21:48.372Z,60.90
2017-07-20T11:24:15.182Z,61.40
2017-07-20T11:26:42.831Z,62.50
2017-07-20T11:29:09.663Z,62.30
2017-07-20T11:31:36.624Z,62.70
2017-07-20T11:34:03.452Z,62.30
2017-07-20T11:36:30.976Z,61.30
2017-07-20T11:38:58.027Z,61.90
2017-07-20T11:41:24.922Z,62.20
2017-07-20T11:43:52.633Z,62.40
2017-07-20T11:46:19.463Z,62.40
2017-07-20T11:48:46.299Z,62.80
2017-07-20T11:51:13.235Z,63.90
2017-07-20T11:53:40.824Z,63.70
2017-07-20T11:56:07.644Z,63.50
2017-07-20T11:58:34.545Z,64.30
2017-07-20T12:01:01.387Z,64.60
2017-07-20T12:03:28.232Z,64.40
2017-07-20T12:05:55.107Z,64.90
2017-07-20T12:08:22.043Z,65.00
2017-07-20T12:10:48.940Z,65.40
2017-07-20T12:13:15.764Z,65.40
2017-07-20T12:15:42.672Z,66.30
2017-07-20T12:18:09.502Z,66.90
2017-07-20T12:20:36.463Z,66.20
2017-07-20T12:23:03.411Z,65.70
2017-07-20T12:25:30.239Z,64.70
2017-07-20T12:27:57.197Z,62.50
2017-07-20T12:30:24.211Z,62.80
2017-07-20T12:32:51.051Z,62.00
2017-07-20T12:35:17.947Z,60.80
2017-07-20T12:37:45.621Z,58.20
2017-07-20T12:40:12.457Z,58.20
2017-07-20T12:42:40.088Z,58.70
2017-07-20T12:45:06.984Z,58.70
2017-07-20T12:47:33.864Z,58.70
2017-07-20T12:50:00.698Z,58.30
2017-07-20T12:52:27.612Z,57.70
2017-07-20T12:54:54.517Z,56.80
2017-07-20T12:57:21.352Z,56.90
2017-07-20T12:59:48.247Z,57.30
2017-07-20T13:02:15.100Z,56.30
2017-07-20T13:04:41.935Z,56.70
2017-07-20T13:07:09.595Z,55.50
2017-07-20T13:09:37.160Z,55.70
2017-07-20T13:12:04.075Z,55.60
2017-07-20T13:14:30.903Z,56.30
2017-07-20T13:16:57.732Z,56.30
2017-07-20T13:19:24.673Z,56.70
2017-07-20T13:21:51.483Z,55.30
2017-07-20T13:24:18.312Z,56.30
2017-07-20T13:26:45.232Z,54.80
2017-07-20T13:29:12.137Z,54.10
2017-07-20T13:31:39.121Z,54.00
2017-07-20T13:34:05.964Z,53.80
2017-07-20T13:36:32.859Z,54.50
2017-07-20T13:38:59.688Z,54.50
2017-07-20T13:41:27.320Z,52.60
2017-07-20T13:43:54.221Z,52.60
2017-07-20T13:46:21.126Z,52.00
2017-07-20T13:48:47.958Z,51.70
2017-07-20T13:51:14.863Z,52.70
2017-07-20T13:53:41.714Z,51.10
2017-07-20T13:56:08.547Z,50.70
2017-07-20T13:58:35.495Z,51.60
2017-07-20T14:01:02.340Z,51.30
2017-07-20T14:03:29.196Z,50.70
2017-07-20T14:05:56.148Z,50.20
2017-07-20T14:08:23.171Z,51.50
2017-07-20T14:10:50.080Z,50.80
2017-07-20T14:13:17.768Z,51.60
2017-07-20T14:15:44.660Z,51.30
2017-07-20T14:18:11.584Z,51.70
2017-07-20T14:20:38.502Z,49.70
2017-07-20T14:23:05.344Z,49.50
2017-07-20T14:25:32.256Z,50.30
2017-07-20T14:27:59.116Z,49.90
2017-07-20T14:30:26.828Z,50.10
2017-07-20T14:32:53.672Z,49.90
2017-07-20T14:35:20.486Z,48.10
2017-07-20T14:37:47.399Z,48.20
2017-07-20T14:40:14.259Z,49.00
2017-07-20T14:42:41.932Z,50.50
2017-07-20T14:45:09.522Z,50.50
2017-07-20T14:47:36.369Z,50.50
2017-07-20T14:50:03.356Z,51.30
2017-07-20T14:52:30.218Z,52.10
2017-07-20T14:54:57.804Z,51.70
2017-07-20T14:57:24.690Z,51.60
2017-07-20T14:59:51.887Z,52.30
2017-07-20T15:02:18.803Z,52.70
2017-07-20T15:04:45.702Z,53.00
2017-07-20T15:07:12.600Z,54.20
2017-07-20T15:09:39.913Z,54.60
2017-07-20T15:12:08.321Z,54.40
2017-07-20T15:14:35.288Z,55.10
2017-07-20T15:17:03.220Z,55.90
2017-07-20T15:19:30.123Z,55.90
2017-07-20T15:21:56.967Z,55.80
2017-07-20T15:24:24.632Z,55.60
2017-07-20T15:26:51.467Z,54.90
2017-07-20T15:29:19.116Z,53.70
2017-07-20T15:31:47.474Z,53.70
2017-07-20T15:34:17.202Z,53.60
2017-07-20T15:36:44.194Z,53.30
2017-07-20T15:39:11.036Z,53.10
2017-07-20T15:41:37.964Z,52.90
2017-07-20T15:44:04.883Z,53.50
2017-07-20T15:46:31.712Z,54.10
2017-07-20T15:48:58.640Z,54.70
2017-07-20T15:51:25.527Z,53.70
2017-07-20T15:53:54.241Z,53.80
2017-07-20T15:56:22.259Z,53.50
2017-07-20T15:58:49.085Z,53.20
2017-07-20T16:01:15.923Z,53.80
2017-07-20T16:03:42.859Z,51.90
2017-07-20T16:06:09.717Z,51.40
2017-07-20T16:08:39.054Z,51.70
2017-07-20T16:11:05.983Z,52.90
2017-07-20T16:13:33.613Z,52.70
2017-07-20T16:16:00.517Z,52.00
2017-07-20T16:18:28.092Z,50.70
2017-07-20T16:20:55.735Z,50.10
2017-07-20T16:23:23.604Z,50.10
2017-07-20T16:25:51.299Z,44.90
2017-07-20T16:28:18.276Z,45.00
2017-07-20T16:30:45.119Z,44.90
2017-07-20T16:33:11.954Z,45.30
2017-07-20T16:35:38.840Z,45.20
2017-07-20T16:38:05.680Z,45.70
2017-07-20T16:40:32.586Z,45.20
2017-07-20T16:42:59.428Z,45.30
2017-07-20T16:45:26.343Z,44.60
2017-07-20T16:47:53.918Z,45.10
2017-07-20T16:50:20.751Z,45.10
2017-07-20T16:52:47.676Z,44.50
2017-07-20T16:55:14.583Z,45.60
2017-07-20T16:57:41.469Z,45.70
2017-07-20T17:00:09.051Z,46.20
2017-07-20T17:02:35.939Z,45.40
2017-07-20T17:05:02.787Z,44.60
2017-07-20T17:07:29.722Z,44.60
2017-07-20T17:09:56.548Z,44.20
2017-07-20T17:12:23.443Z,43.10
2017-07-20T17:14:50.390Z,43.60
2017-07-20T17:17:17.222Z,43.80
2017-07-20T17:19:44.149Z,43.70
2017-07-20T17:22:10.980Z,43.80
2017-07-20T17:24:37.820Z,44.10
2017-07-20T17:27:04.719Z,44.30
2017-07-20T17:29:31.558Z,44.20
2017-07-20T17:31:58.408Z,44.10
2017-07-20T17:34:26.040Z,45.10
2017-07-20T17:36:52.923Z,44.90
2017-07-20T17:39:20.855Z,45.70
2017-07-20T17:41:47.703Z,45.40
2017-07-20T17:44:14.541Z,45.70
2017-07-20T17:46:41.446Z,46.20
2017-07-20T17:49:08.276Z,46.40
2017-07-20T17:51:35.844Z,46.60
2017-07-20T17:54:03.636Z,46.60
2017-07-20T17:56:30.480Z,46.80
2017-07-20T17:58:57.321Z,46.60
2017-07-20T18:01:24.257Z,47.10
2017-07-20T18:03:51.187Z,47.00
2017-07-20T18:06:18.755Z,47.80
2017-07-20T18:08:45.698Z,47.70
2017-07-20T18:11:12.598Z,47.70
2017-07-20T18:13:39.445Z,47.90
2017-07-20T18:16:06.439Z,47.90
2017-07-20T18:18:33.286Z,48.30
2017-07-20T18:21:00.140Z,48.60
2017-07-20T18:23:27.052Z,48.30
2017-07-20T18:25:54.704Z,48.80
2017-07-20T18:28:21.648Z,48.80
2017-07-20T18:30:48.552Z,48.60
2017-07-20T18:33:15.393Z,48.60
2017-07-20T18:35:43.108Z,49.00
2017-07-20T18:38:10.773Z,48.40
2017-07-20T18:40:38.352Z,48.90
2017-07-20T18:43:06.032Z,48.10
2017-07-20T18:45:32.898Z,48.10
2017-07-20T18:47:59.756Z,47.40
2017-07-20T18:50:26.663Z,46.90
2017-07-20T18:52:53.696Z,45.50
2017-07-20T18:55:20.547Z,44.80
2017-07-20T18:57:47.418Z,44.30
2017-07-20T19:00:14.328Z,44.30
2017-07-20T19:02:41.915Z,45.10
2017-07-20T19:05:08.759Z,45.10
2017-07-20T19:07:35.664Z,45.10
2017-07-20T19:10:03.351Z,46.50
2017-07-20T19:12:30.196Z,45.80
2017-07-20T19:14:57.036Z,46.10
2017-07-20T19:17:23.977Z,46.30
2017-07-20T19:19:51.604Z,45.60
2017-07-20T19:22:19.228Z,44.90
2017-07-20T19:24:46.158Z,44.90
2017-07-20T19:27:13.070Z,44.80
2017-07-20T19:29:39.920Z,44.80
2017-07-20T19:32:07.503Z,46.50
2017-07-20T19:34:34.416Z,46.40
2017-07-20T19:37:01.278Z,45.30
2017-07-20T19:39:28.868Z,46.50
2017-07-20T19:41:55.756Z,46.50
2017-07-20T19:44:22.595Z,45.80
2017-07-20T19:46:49.510Z,46.40
2017-07-20T19:49:16.431Z,46.40
2017-07-20T19:51:43.252Z,46.30
2017-07-20T19:54:10.936Z,47.50
2017-07-20T19:56:37.775Z,46.90
2017-07-20T19:59:05.345Z,46.60
2017-07-20T20:01:32.389Z,46.60
2017-07-20T20:03:59.239Z,46.60
2017-07-20T20:06:26.049Z,46.40
2017-07-20T20:08:52.932Z,46.70
2017-07-20T20:11:19.971Z,46.30
2017-07-20T20:13:46.868Z,46.60
2017-07-20T20:16:14.119Z,46.00
2017-07-20T20:18:41.002Z,47.20
2017-07-20T20:21:08.576Z,47.00
2017-07-20T20:23:35.476Z,47.00
2017-07-20T20:26:02.297Z,47.30
2017-07-20T20:28:29.113Z,48.30
2017-07-20T20:30:56.079Z,47.70
2017-07-20T20:33:22.920Z,48.70
2017-07-20T20:35:49.816Z,49.10
2017-07-20T20:38:16.662Z,48.30
2017-07-20T20:40:44.249Z,48.40
2017-07-20T20:43:11.227Z,48.00
2017-07-20T20:45:40.329Z,48.40
2017-07-20T20:48:08.468Z,48.10
2017-07-20T20:50:35.350Z,47.90
2017-07-20T20:53:02.188Z,47.80
2017-07-20T20:55:29.096Z,47.20
2017-07-20T20:57:55.911Z,47.80
2017-07-20T21:00:22.767Z,47.40
2017-07-20T21:02:50.399Z,48.10
2017-07-20T21:05:17.235Z,48.10
2017-07-20T21:07:44.144Z,47.50
2017-07-20T21:10:10.988Z,47.70
2017-07-20T21:12:39.264Z,48.70
2017-07-20T21:15:07.893Z,48.00
2017-07-20T21:17:36.178Z,49.50
2017-07-20T21:20:03.135Z,49.30
2017-07-20T21:22:30.984Z,49.80
2017-07-20T21:24:58.825Z,49.20
2017-07-20T21:27:26.525Z,49.60
2017-07-20T21:29:55.155Z,50.50
2017-07-20T21:32:22.898Z,51.50
2017-07-20T21:34:51.622Z,51.50
2017-07-20T21:37:19.908Z,51.90
2017-07-20T21:39:47.951Z,52.70
2017-07-20T21:42:20.215Z,52.30
2017-07-20T21:44:47.147Z,52.30
2017-07-20T21:47:14.909Z,52.60
2017-07-20T21:49:42.552Z,54.70
2017-07-20T21:52:09.451Z,54.70
2017-07-20T21:54:36.356Z,54.70
2017-07-20T21:57:03.252Z,56.00
2017-07-20T21:59:30.131Z,56.60
2017-07-20T22:01:57.064Z,56.40
2017-07-20T22:04:23.901Z,56.80
2017-07-20T22:06:50.731Z,57.20
2017-07-20T22:09:17.633Z,57.00
2017-07-20T22:11:45.280Z,57.80
2017-07-20T22:14:13.358Z,58.40
2017-07-20T22:16:41.618Z,57.70
2017-07-20T22:19:18.208Z,57.70
2017-07-20T22:21:56.740Z,57.90
2017-07-20T22:24:28.484Z,57.40
2017-07-20T22:27:05.717Z,56.70
2017-07-20T22:29:37.556Z,57.40
2017-07-20T22:32:16.450Z,58.10
2017-07-20T22:34:50.907Z,58.00
2017-07-20T22:37:30.370Z,58.50
2017-07-20T22:40:09.045Z,58.50
2017-07-20T22:42:49.101Z,58.80
2017-07-20T22:45:27.466Z,58.70
2017-07-20T22:47:55.358Z,58.50
2017-07-20T22:50:32.434Z,58.50
2017-07-20T22:53:12.049Z,59.60
2017-07-20T22:55:50.715Z,58.70
2017-07-20T22:58:29.946Z,58.70
2017-07-20T23:01:09.728Z,58.60
2017-07-20T23:03:53.648Z,58.80
2017-07-20T23:06:21.584Z,58.50
2017-07-20T23:08:59.473Z,58.80
2017-07-20T23:11:38.560Z,59.30
2017-07-20T23:14:05.754Z,59.80
2017-07-20T23:16:40.118Z,59.60
2017-07-20T23:19:12.992Z,59.90
2017-07-20T23:21:52.347Z,59.70
2017-07-20T23:24:30.674Z,60.20
2017-07-20T23:27:09.444Z,60.20
2017-07-20T23:29:39.928Z,60.20
2017-07-20T23:32:19.566Z,61.00
2017-07-20T23:34:47.127Z,60.40
2017-07-20T23:37:14.040Z,60.10
2017-07-20T23:39:41.058Z,60.00
2017-07-20T23:42:18.048Z,60.30
2017-07-20T23:44:56.650Z,61.40
2017-07-20T23:47:39.796Z,60.20
2017-07-20T23:50:22.155Z,59.90
2017-07-20T23:52:50.048Z,59.60
2017-07-20T23:55:16.863Z,59.40
2017-07-20T23:57:43.698Z,59.00
